createdAt,value
2018-02-05T00:00:17.583Z,59.11
2018-02-05T00:01:11.608Z,58.92
2018-02-05T00:02:01.173Z,58.17
2018-02-05T00:11:12.224Z,59.68
2018-02-05T00:12:01.324Z,59.59
2018-02-05T00:12:49.344Z,60.35
2018-02-05T00:13:39.104Z,60.44
2018-02-05T00:14:29.329Z,59.88
2018-02-05T00:15:18.686Z,59.88
2018-02-05T00:16:07.769Z,60.44
2018-02-05T00:16:59.855Z,60.35
2018-02-05T00:17:51.425Z,59.88
2018-02-05T00:18:41.080Z,59.49
2018-02-05T00:19:32.928Z,59.49
2018-02-05T00:20:24.939Z,59.02
2018-02-05T00:21:15.655Z,59.49
2018-02-05T00:23:18.040Z,59.88
2018-02-05T00:25:16.881Z,59.21
2018-02-05T00:26:08.780Z,59.68
2018-02-05T00:26:57.964Z,59.3
2018-02-05T00:27:46.955Z,59.49
2018-02-05T00:28:40.962Z,59.11
2018-02-05T00:29:31.960Z,59.3
2018-02-05T00:30:30.083Z,59.97
2018-02-05T00:37:52.737Z,58.83
2018-02-05T00:38:47.899Z,59.21
2018-02-05T00:39:52.791Z,59.88
2018-02-05T00:40:56.529Z,60.35
2018-02-05T00:41:49.664Z,60.25
2018-02-05T00:42:41.679Z,59.88
2018-02-05T00:45:13.771Z,59.49
2018-02-05T00:46:03.086Z,59.68
2018-02-05T00:46:51.724Z,59.88
2018-02-05T00:48:44.051Z,59.94
2018-02-05T00:49:33.743Z,60.06
2018-02-05T00:50:23.311Z,60.35
2018-02-05T00:51:12.690Z,60.16
2018-02-05T00:52:04.728Z,60.25
2018-02-05T00:52:56.110Z,60.35
2018-02-05T00:53:44.203Z,60.35
2018-02-05T00:54:33.375Z,59.66
2018-02-05T00:56:44.211Z,60.31
2018-02-05T01:17:14.161Z,61.65
2018-02-05T01:18:10.869Z,62.12
2018-02-05T01:21:10.171Z,62.5
2018-02-05T01:29:37.797Z,62.85
2018-02-05T04:00:10.669Z,62.31
2018-02-05T04:42:43.603Z,64.17
2018-02-05T04:43:38.266Z,63.79
2018-02-05T04:44:45.724Z,63.98
2018-02-05T04:45:37.876Z,63.7
2018-02-05T04:46:39.134Z,63.79
2018-02-05T04:47:31.533Z,63.98
2018-02-05T04:48:24.315Z,64.36
2018-02-05T04:49:37.471Z,64.27
2018-02-05T05:00:32.252Z,63.17
2018-02-05T05:01:34.646Z,63.64
2018-02-05T05:02:27.174Z,63.54
2018-02-05T05:03:21.871Z,64.01
2018-02-05T05:15:20.599Z,62.21
2018-02-05T05:16:06.039Z,62.31
2018-02-05T05:16:58.323Z,62.5
2018-02-05T05:17:49.184Z,61.65
2018-02-05T05:19:41.148Z,61.93
2018-02-05T05:20:32.836Z,62.12
2018-02-05T05:21:24.584Z,61.93
2018-02-05T05:22:19.151Z,62.02
2018-02-05T05:23:13.605Z,62.88
2018-02-05T05:24:05.083Z,62.21
2018-02-05T05:24:55.868Z,62.59
2018-02-05T05:25:49.157Z,62.59
2018-02-05T05:26:42.242Z,62.5
2018-02-05T05:27:33.305Z,62.21
2018-02-05T05:28:32.717Z,62.88
2018-02-05T05:29:19.975Z,62.59
2018-02-05T05:30:17.499Z,62.4
2018-02-05T05:31:06.691Z,62.5
2018-02-05T05:32:03.962Z,62.88
2018-02-05T05:32:51.154Z,62.12
2018-02-05T05:38:24.503Z,62.4
2018-02-05T05:39:13.095Z,62.69
2018-02-05T05:40:00.570Z,63.07
2018-02-05T05:40:49.425Z,63.17
2018-02-05T05:41:39.976Z,62.69
2018-02-05T05:42:29.109Z,63.26
2018-02-05T05:44:41.307Z,63.35
2018-02-05T05:48:57.135Z,62.59
2018-02-05T05:49:46.119Z,62.12
2018-02-05T05:50:40.322Z,62.02
2018-02-05T05:53:54.895Z,62.59
2018-02-05T05:54:46.892Z,62.59
2018-02-05T06:04:36.083Z,62.34
2018-02-05T06:05:24.904Z,61.93
2018-02-05T06:06:13.173Z,62.21
2018-02-05T06:07:04.420Z,62.15
2018-02-05T06:07:52.741Z,61.55
2018-02-05T06:08:42.072Z,60.89
2018-02-05T06:09:32.230Z,61.93
2018-02-05T06:10:21.109Z,62.4
2018-02-05T06:11:09.572Z,62.31
2018-02-05T06:12:00.603Z,62.02
2018-02-05T06:12:48.931Z,61.93
2018-02-05T06:13:38.012Z,61.55
2018-02-05T06:14:26.523Z,61.83
2018-02-05T06:15:16.678Z,61.93
2018-02-05T06:16:05.677Z,61.74
2018-02-05T06:16:54.060Z,61.96
2018-02-05T06:17:42.293Z,62.43
2018-02-05T06:18:31.603Z,61.49
2018-02-05T06:19:19.819Z,61.87
2018-02-05T06:20:08.608Z,61.3
2018-02-05T06:20:57.396Z,61.96
2018-02-05T06:21:45.775Z,61.3
2018-02-05T06:22:34.533Z,61.58
2018-02-05T06:23:23.411Z,60.92
2018-02-05T06:24:11.712Z,60.82
2018-02-05T06:25:00.319Z,61.96
2018-02-05T06:25:49.065Z,62.24
2018-02-05T06:26:37.497Z,62.62
2018-02-05T06:27:27.336Z,62.05
2018-02-05T06:28:14.676Z,62.05
2018-02-05T06:29:03.823Z,62.24
2018-02-05T06:29:52.285Z,61.39
2018-02-05T06:30:41.038Z,61.01
2018-02-05T06:31:29.566Z,60.92
2018-02-05T06:32:18.437Z,60.25
2018-02-05T06:33:06.702Z,60.82
2018-02-05T06:33:56.152Z,60.92
2018-02-05T06:34:51.243Z,60.35
2018-02-05T06:35:37.684Z,60.35
2018-02-05T06:36:26.089Z,60.06
2018-02-05T06:37:14.540Z,60.92
2018-02-05T06:38:03.100Z,61.01
2018-02-05T06:38:51.694Z,60.16
2018-02-05T06:39:40.466Z,59.78
2018-02-05T06:40:29.050Z,59.49
2018-02-05T06:41:17.615Z,59.68
2018-02-05T06:42:06.147Z,59.88
2018-02-05T06:42:54.748Z,59.81
2018-02-05T06:43:46.496Z,60
2018-02-05T06:44:35.195Z,59.78
2018-02-05T06:45:25.045Z,59.68
2018-02-05T06:46:13.618Z,59.33
2018-02-05T06:47:02.044Z,59.4
2018-02-05T06:47:50.560Z,59.05
2018-02-05T06:48:40.096Z,58.64
2018-02-05T06:49:27.963Z,58.95
2018-02-05T06:50:17.040Z,58.95
2018-02-05T06:51:05.998Z,58.92
2018-02-05T06:51:56.343Z,59.21
2018-02-05T06:52:44.472Z,59.02
2018-02-05T06:53:34.440Z,59.59
2018-02-05T06:54:25.621Z,58.92
2018-02-05T06:55:13.517Z,59.21
2018-02-05T06:56:02.563Z,58.64
2018-02-05T06:58:29.444Z,60.25
2018-02-05T07:00:58.405Z,59.88
2018-02-05T07:01:47.900Z,60.16
2018-02-05T07:02:35.555Z,59.49
2018-02-05T07:03:24.809Z,59.4
2018-02-05T07:04:17.759Z,60.35
2018-02-05T07:05:08.981Z,59.4
2018-02-05T07:05:58.021Z,59.49
2018-02-05T07:06:46.115Z,60.06
2018-02-05T07:07:34.786Z,59.68
2018-02-05T07:08:23.510Z,59.68
2018-02-05T07:09:12.270Z,59.59
2018-02-05T07:10:01.056Z,59.21
2018-02-05T07:10:50.022Z,60.44
2018-02-05T07:11:38.184Z,60.76
2018-02-05T07:12:26.725Z,59.88
2018-02-05T07:13:15.720Z,59.62
2018-02-05T07:14:04.380Z,59.62
2018-02-05T07:14:53.064Z,59.33
2018-02-05T07:15:41.912Z,58.54
2018-02-05T07:16:30.980Z,58.45
2018-02-05T07:17:21.321Z,58.17
2018-02-05T07:18:08.474Z,59.02
2018-02-05T07:18:57.138Z,59.24
2018-02-05T07:19:47.698Z,59.4
2018-02-05T07:20:36.540Z,58.17
2018-02-05T07:21:25.198Z,58.73
2018-02-05T07:22:14.478Z,59.11
2018-02-05T07:23:06.093Z,58.92
2018-02-05T07:23:54.295Z,58.83
2018-02-05T07:24:43.697Z,59.21
2018-02-05T07:25:33.984Z,58.45
2018-02-05T07:26:23.152Z,59.02
2018-02-05T07:27:12.633Z,59.05
2018-02-05T07:28:00.769Z,59.24
2018-02-05T07:28:49.688Z,58.39
2018-02-05T07:29:37.963Z,58.1
2018-02-05T07:30:26.221Z,57.24
2018-02-05T07:31:14.624Z,57.15
2018-02-05T07:32:04.057Z,57.34
2018-02-05T07:32:52.761Z,56.68
2018-02-05T07:33:41.288Z,56.58
2018-02-05T07:34:30.190Z,56.1
2018-02-05T07:35:18.814Z,56.58
2018-02-05T07:36:09.868Z,56.58
2018-02-05T07:36:57.903Z,56.58
2018-02-05T07:37:47.595Z,56.99
2018-02-05T07:43:08.109Z,55.37
2018-02-05T07:44:00.573Z,54.8
2018-02-05T07:45:51.256Z,53.97
2018-02-05T07:46:39.834Z,53.5
2018-02-05T07:47:28.048Z,53.57
2018-02-05T07:48:16.704Z,53.47
2018-02-05T07:49:05.575Z,54.14
2018-02-05T07:49:54.182Z,54.14
2018-02-05T07:50:42.566Z,54.61
2018-02-05T07:51:31.524Z,53.95
2018-02-05T07:52:19.575Z,53.5
2018-02-05T07:53:08.504Z,52.93
2018-02-05T07:53:56.544Z,52.36
2018-02-05T07:54:46.234Z,53.31
2018-02-05T07:55:35.016Z,53.97
2018-02-05T07:56:23.434Z,53.31
2018-02-05T07:57:12.028Z,52.93
2018-02-05T08:01:14.797Z,51.6
2018-02-05T08:03:41.330Z,51.53
2018-02-05T08:04:32.151Z,51.34
2018-02-05T08:05:21.234Z,50.87
2018-02-05T08:06:10.176Z,51.03
2018-02-05T08:06:58.077Z,50.56
2018-02-05T08:07:47.029Z,51.12
2018-02-05T08:08:35.653Z,51.41
2018-02-05T08:09:23.830Z,50.93
2018-02-05T08:10:12.149Z,50.93
2018-02-05T08:11:01.310Z,51.12
2018-02-05T08:11:50.165Z,51.03
2018-02-05T08:12:41.876Z,51.48
2018-02-05T08:13:29.591Z,53.19
2018-02-05T08:14:21.164Z,54.33
2018-02-05T08:20:46.222Z,52.93
2018-02-05T08:21:36.038Z,52.93
2018-02-05T08:22:24.746Z,52.08
2018-02-05T08:25:04.106Z,51.06
2018-02-05T08:25:53.873Z,51.06
2018-02-05T08:26:43.071Z,51.6
2018-02-05T08:27:32.319Z,52.01
2018-02-05T08:28:26.607Z,50.96
2018-02-05T08:29:12.228Z,51.62
2018-02-05T08:30:05.350Z,50.77
2018-02-05T08:30:53.580Z,50.1
2018-02-05T08:32:44.744Z,50.23
2018-02-05T08:33:35.316Z,50.32
2018-02-05T08:34:26.588Z,50.23
2018-02-05T08:35:14.992Z,49.85
2018-02-05T08:36:07.222Z,50.1
2018-02-05T08:38:30.546Z,49.27
2018-02-05T08:39:18.832Z,49.37
2018-02-05T08:40:08.101Z,49.4
2018-02-05T08:40:56.098Z,48.92
2018-02-05T08:41:44.996Z,47.39
2018-02-05T08:42:33.562Z,46.63
2018-02-05T08:43:22.332Z,47.13
2018-02-05T08:44:11.082Z,46.75
2018-02-05T08:45:00.120Z,47.04
2018-02-05T08:45:49.066Z,46.28
2018-02-05T08:46:37.284Z,46.37
2018-02-05T08:47:26.461Z,46.18
2018-02-05T08:48:15.041Z,45.99
2018-02-05T08:49:05.650Z,46.18
2018-02-05T08:49:52.674Z,46.25
2018-02-05T08:50:41.456Z,46.83
2018-02-05T08:51:30.974Z,46.63
2018-02-05T08:52:22.316Z,46.35
2018-02-05T08:53:19.592Z,46.44
2018-02-05T08:54:10.101Z,46.25
2018-02-05T08:56:14.315Z,47.94
2018-02-05T08:58:35.855Z,49.65
2018-02-05T08:59:24.375Z,48.3
2018-02-05T09:00:16.556Z,49.37
2018-02-05T09:02:42.084Z,47.68
2018-02-05T09:03:31.270Z,47.3
2018-02-05T09:04:20.471Z,46.54
2018-02-05T09:05:08.342Z,46.66
2018-02-05T09:06:00.212Z,45.14
2018-02-05T09:06:49.439Z,45.15
2018-02-05T09:07:37.302Z,44.59
2018-02-05T09:08:28.268Z,43.16
2018-02-05T09:09:15.754Z,42.76
2018-02-05T09:10:08.315Z,44.09
2018-02-05T09:11:01.885Z,43.68
2018-02-05T09:11:44.282Z,44.73
2018-02-05T09:12:25.080Z,46.14
2018-02-05T09:13:06.566Z,46.99
2018-02-05T09:13:47.768Z,47.28
2018-02-05T09:14:29.458Z,46.99
2018-02-05T09:15:09.638Z,46.7
2018-02-05T09:15:50.152Z,46.8
2018-02-05T09:16:31.285Z,46.61
2018-02-05T09:17:11.647Z,47.37
2018-02-05T09:17:52.365Z,47.97
2018-02-05T09:18:34.100Z,48.44
2018-02-05T09:19:14.553Z,47.2
2018-02-05T09:19:55.670Z,46.75
2018-02-05T09:20:37.022Z,45.99
2018-02-05T09:21:18.050Z,46.28
2018-02-05T09:21:58.497Z,45.8
2018-02-05T09:22:39.733Z,44.94
2018-02-05T09:23:21.245Z,45.8
2018-02-05T09:24:02.514Z,46.28
2018-02-05T09:24:43.113Z,45.42
2018-02-05T09:25:23.834Z,45.42
2018-02-05T09:26:04.228Z,46.18
2018-02-05T09:26:44.774Z,46.56
2018-02-05T09:27:25.707Z,45.42
2018-02-05T09:28:06.292Z,45.23
2018-02-05T09:28:48.360Z,44.75
2018-02-05T09:29:29.070Z,45.01
2018-02-05T09:30:09.876Z,46.35
2018-02-05T09:30:50.532Z,46.61
2018-02-05T09:31:31.568Z,47.78
2018-02-05T09:32:12.235Z,47.66
2018-02-05T09:32:53.627Z,46.61
2018-02-05T09:33:33.994Z,46.61
2018-02-05T09:34:15.247Z,47.16
2018-02-05T09:34:56.225Z,48.11
2018-02-05T09:35:36.644Z,49.35
2018-02-05T09:36:19.370Z,47.92
2018-02-05T09:37:00.013Z,49.54
2018-02-05T09:37:40.466Z,49.35
2018-02-05T09:38:21.702Z,50.39
2018-02-05T09:39:02.195Z,49.46
2018-02-05T09:39:42.785Z,50.13
2018-02-05T09:40:23.584Z,50.42
2018-02-05T09:41:04.016Z,49.58
2018-02-05T09:41:44.734Z,47.68
2018-02-05T09:42:24.987Z,47.71
2018-02-05T09:43:05.641Z,45.3
2018-02-05T09:43:47.779Z,44.64
2018-02-05T09:44:29.078Z,46.23
2018-02-05T09:45:09.260Z,47.37
2018-02-05T09:45:49.362Z,49.08
2018-02-05T09:46:29.814Z,48.51
2018-02-05T09:47:10.231Z,47.94
2018-02-05T09:47:50.955Z,47.66
2018-02-05T09:48:31.694Z,46.99
2018-02-05T09:49:13.414Z,47.66
2018-02-05T09:49:54.224Z,48.16
2018-02-05T09:50:36.564Z,47.78
2018-02-05T09:51:16.923Z,46.84
2018-02-05T09:51:57.136Z,46.06
2018-02-05T09:52:37.937Z,46.15
2018-02-05T09:53:18.823Z,45.97
2018-02-05T09:53:59.275Z,47.68
2018-02-05T09:54:39.954Z,47.97
2018-02-05T09:55:20.620Z,47.71
2018-02-05T09:56:01.693Z,46.56
2018-02-05T09:56:43.189Z,45.21
2018-02-05T09:57:24.705Z,45.87
2018-02-05T09:58:05.717Z,45
2018-02-05T09:58:46.840Z,47.18
2018-02-05T09:59:28.186Z,47.25
2018-02-05T10:00:09.673Z,46.97
2018-02-05T10:00:49.823Z,48.18
2018-02-05T10:01:30.731Z,49.04
2018-02-05T10:02:11.561Z,50.62
2018-02-05T10:02:52.526Z,52.33
2018-02-05T10:03:33.128Z,52.08
2018-02-05T10:04:13.566Z,52.55
2018-02-05T10:43:34.737Z,46.75
2018-02-05T10:44:19.674Z,47.52
2018-02-05T10:45:09.344Z,46.3
2018-02-05T10:45:59.383Z,45.06
2018-02-05T10:46:39.855Z,43.63
2018-02-05T10:47:20.665Z,44.11
2018-02-05T10:48:01.407Z,43.35
2018-02-05T10:48:42.512Z,43.63
2018-02-05T10:49:22.927Z,45.25
2018-02-05T10:50:04.271Z,44.99
2018-02-05T10:50:45.517Z,44.13
2018-02-05T10:51:26.007Z,43.27
2018-02-05T10:52:06.715Z,42.72
2018-02-05T10:52:47.282Z,42.24
2018-02-05T10:53:27.916Z,41
2018-02-05T10:54:08.537Z,41.27
2018-02-05T10:54:49.229Z,42.03
2018-02-05T10:55:29.945Z,40.99
2018-02-05T10:56:10.376Z,41.16
2018-02-05T10:56:50.780Z,42.96
2018-02-05T10:57:31.201Z,44.01
2018-02-05T10:58:11.649Z,45.06
2018-02-05T10:58:52.844Z,43.99
2018-02-05T10:59:33.645Z,43.99
2018-02-05T11:00:14.139Z,45.8
2018-02-05T11:00:54.663Z,45.23
2018-02-05T11:01:36.075Z,43.99
2018-02-05T11:02:16.553Z,43.42
2018-02-05T11:02:57.284Z,43.59
2018-02-05T11:03:38.371Z,44.04
2018-02-05T11:04:18.675Z,46.23
2018-02-05T11:04:59.673Z,45.85
2018-02-05T11:05:39.671Z,46.49
2018-02-05T11:06:20.174Z,47.56
2018-02-05T11:07:00.691Z,46.8
2018-02-05T11:07:41.131Z,46.99
2018-02-05T11:08:21.834Z,47.85
2018-02-05T11:09:02.287Z,49.56
2018-02-05T11:09:42.815Z,48.82
2018-02-05T11:10:23.426Z,48.16
2018-02-05T11:11:03.805Z,46.15
2018-02-05T11:11:44.262Z,44.66
2018-02-05T11:12:24.961Z,45.01
2018-02-05T11:13:05.506Z,45.14
2018-02-05T11:13:45.911Z,44.64
2018-02-05T11:14:26.596Z,45.01
2018-02-05T11:15:06.973Z,45.3
2018-02-05T11:17:08.883Z,44.54
2018-02-05T11:17:54.683Z,46.06
2018-02-05T11:18:47.660Z,44.52
2018-02-05T11:19:28.938Z,44.23
2018-02-05T11:20:09.377Z,45.35
2018-02-05T11:20:49.982Z,47.16
2018-02-05T11:21:30.695Z,46.78
2018-02-05T11:22:11.584Z,47.25
2018-02-05T11:22:52.070Z,47.54
2018-02-05T11:23:33.134Z,47.34
2018-02-05T11:24:13.402Z,47.63
2018-02-05T11:24:54.107Z,48.03
2018-02-05T11:25:35.126Z,49.46
2018-02-05T11:26:15.943Z,46.61
2018-02-05T11:26:57.195Z,47.18
2018-02-05T11:27:37.540Z,46.61
2018-02-05T11:28:17.977Z,46.04
2018-02-05T11:28:58.656Z,45.45
2018-02-05T11:29:39.945Z,47.23
2018-02-05T11:30:20.359Z,48.18
2018-02-05T11:31:02.001Z,48.75
2018-02-05T11:31:42.898Z,48.56
2018-02-05T11:32:23.680Z,48.06
2018-02-05T11:33:04.654Z,50.24
2018-02-05T11:33:45.215Z,50.72
2018-02-05T11:34:25.670Z,51.86
2018-02-05T11:35:06.155Z,52.45
2018-02-05T11:35:47.416Z,52.17
2018-02-05T11:36:32.491Z,51.31
2018-02-05T11:37:14.506Z,51.22
2018-02-05T11:37:55.926Z,50.77
2018-02-05T11:38:36.749Z,50.32
2018-02-05T11:39:18.059Z,49.37
2018-02-05T11:39:58.482Z,48.03
2018-02-05T11:40:38.916Z,48.63
2018-02-05T11:41:19.756Z,46.63
2018-02-05T11:42:00.792Z,45.3
2018-02-05T11:42:41.431Z,45.28
2018-02-05T11:43:22.143Z,44.59
2018-02-05T11:44:04.061Z,45.16
2018-02-05T11:44:44.929Z,46.94
2018-02-05T11:45:26.204Z,47.42
2018-02-05T11:46:07.014Z,47.42
2018-02-05T11:46:47.586Z,47.99
2018-02-05T11:47:28.068Z,48.85
2018-02-05T11:48:08.563Z,50.18
2018-02-05T11:48:49.596Z,48.18
2018-02-05T11:49:30.124Z,47.71
2018-02-05T11:50:10.941Z,47.61
2018-02-05T11:50:51.335Z,47.99
2018-02-05T11:51:32.706Z,47.58
2018-02-05T11:52:14.125Z,48.82
2018-02-05T11:52:54.724Z,49.87
2018-02-05T11:53:35.098Z,50.91
2018-02-05T11:54:15.503Z,50.34
2018-02-05T11:54:56.518Z,50.6
2018-02-05T11:55:37.409Z,50.91
2018-02-05T11:56:18.430Z,52.81
2018-02-05T11:56:58.848Z,52.62
2018-02-05T11:57:40.121Z,51.6
2018-02-05T11:58:22.151Z,51.12
2018-02-05T11:59:03.363Z,50.08
2018-02-05T11:59:44.678Z,49.98
2018-02-05T12:00:25.765Z,49.6
2018-02-05T12:01:07.460Z,48.56
2018-02-05T12:01:48.056Z,49.04
2018-02-05T12:02:28.523Z,49.44
2018-02-05T12:03:09.129Z,49.91
2018-02-05T12:03:49.886Z,49.75
2018-02-05T12:04:30.394Z,47.66
2018-02-05T12:05:11.698Z,46.14
2018-02-05T12:05:51.796Z,46.8
2018-02-05T12:06:32.227Z,49.75
2018-02-05T12:08:50.309Z,46.28
2018-02-05T12:09:32.175Z,45.54
2018-02-05T12:10:12.892Z,46.11
2018-02-05T12:10:53.374Z,45.84
2018-02-05T12:11:33.831Z,43.49
2018-02-05T12:12:14.252Z,42.44
2018-02-05T12:12:55.482Z,41
2018-02-05T12:13:35.732Z,41.67
2018-02-05T12:14:16.171Z,39.76
2018-02-05T12:14:56.617Z,40.53
2018-02-05T12:15:37.009Z,41.79
2018-02-05T12:16:17.463Z,39.39
2018-02-05T12:16:58.364Z,38.71
2018-02-05T12:17:38.780Z,40.34
2018-02-05T12:18:19.164Z,41.69
2018-02-05T12:18:59.694Z,41.12
2018-02-05T12:19:40.477Z,39.88
2018-02-05T12:20:20.896Z,39.31
2018-02-05T12:21:01.503Z,39.29
2018-02-05T12:21:41.890Z,38.91
2018-02-05T12:22:22.362Z,41.29
2018-02-05T12:23:02.811Z,41.36
2018-02-05T12:23:43.183Z,40.99
2018-02-05T12:24:23.645Z,42.2
2018-02-05T12:26:19.114Z,43.32
2018-02-05T12:26:59.734Z,43.42
2018-02-05T12:27:40.424Z,43.42
2018-02-05T12:28:21.820Z,42.85
2018-02-05T12:29:01.964Z,42.64
2018-02-05T12:29:42.292Z,43.97
2018-02-05T12:30:23.979Z,45.21
2018-02-05T12:31:04.656Z,45.68
2018-02-05T12:31:44.623Z,46.35
2018-02-05T12:32:25.033Z,46.37
2018-02-05T12:33:05.840Z,44.37
2018-02-05T12:33:46.218Z,44.75
2018-02-05T12:34:26.602Z,45.23
2018-02-05T12:35:07.051Z,45.99
2018-02-05T12:35:47.647Z,45.51
2018-02-05T12:36:28.104Z,44.09
2018-02-05T12:37:09.281Z,44.78
2018-02-05T12:37:49.053Z,44.49
2018-02-05T12:38:29.365Z,44.6
2018-02-05T12:39:10.002Z,44.32
2018-02-05T12:39:50.333Z,42.53
2018-02-05T12:40:30.746Z,41.2
2018-02-05T12:41:11.156Z,42.05
2018-02-05T12:41:51.576Z,42.53
2018-02-05T12:42:31.976Z,41
2018-02-05T12:43:12.387Z,41
2018-02-05T12:43:52.957Z,39.86
2018-02-05T12:44:34.031Z,40.24
2018-02-05T12:45:15.691Z,40.15
2018-02-05T12:45:56.358Z,39.58
2018-02-05T12:46:36.963Z,39.95
2018-02-05T12:47:17.324Z,38.71
2018-02-05T12:47:57.814Z,39.84
2018-02-05T12:48:38.681Z,39.94
2018-02-05T12:52:31.639Z,39.46
2018-02-05T12:53:15.553Z,40.12
2018-02-05T12:53:55.476Z,42.32
2018-02-05T12:54:35.968Z,41.06
2018-02-05T12:55:16.456Z,40.97
2018-02-05T12:55:56.996Z,41.16
2018-02-05T12:56:37.534Z,41.33
2018-02-05T12:57:18.068Z,41.33
2018-02-05T12:57:58.373Z,43.23
2018-02-05T12:58:39.895Z,42.56
2018-02-05T13:00:34.418Z,42.25
2018-02-05T13:01:16.088Z,43.02
2018-02-05T13:01:56.392Z,42.73
2018-02-05T13:04:15.979Z,44.61
2018-02-05T13:04:59.333Z,45.18
2018-02-05T13:05:39.848Z,45.49
2018-02-05T13:06:20.325Z,44.54
2018-02-05T13:07:01.124Z,44.35
2018-02-05T13:07:41.674Z,45.4
2018-02-05T13:08:22.114Z,44.82
2018-02-05T13:09:02.504Z,45.59
2018-02-05T13:09:43.743Z,46.35
2018-02-05T13:10:23.662Z,46.37
2018-02-05T13:11:04.151Z,45.44
2018-02-05T13:11:46.301Z,43.82
2018-02-05T13:12:26.784Z,42.7
2018-02-05T13:13:07.271Z,41.56
2018-02-05T13:15:06.985Z,40.7
2018-02-05T13:15:48.943Z,40.6
2018-02-05T13:16:36.008Z,39.75
2018-02-05T13:17:16.658Z,40.11
2018-02-05T13:17:57.129Z,41.44
2018-02-05T13:18:37.521Z,40.68
2018-02-05T13:19:18.742Z,41.16
2018-02-05T13:19:58.583Z,41.25
2018-02-05T13:20:39.161Z,40.97
2018-02-05T13:21:19.949Z,39.92
2018-02-05T13:22:00.496Z,39.23
2018-02-05T13:22:40.941Z,39.78
2018-02-05T13:23:21.490Z,42.07
2018-02-05T13:24:02.606Z,43.04
2018-02-05T13:24:43.044Z,42.76
2018-02-05T13:26:42.272Z,40.94
2018-02-05T13:27:23.441Z,42.28
2018-02-05T13:28:04.000Z,40.94
2018-02-05T13:28:44.514Z,41.23
2018-02-05T13:29:26.439Z,41.99
2018-02-05T13:30:07.816Z,42.18
2018-02-05T13:30:49.851Z,41.42
2018-02-05T13:31:29.975Z,41.06
2018-02-05T13:32:10.704Z,41.16
2018-02-05T13:32:52.273Z,41.16
2018-02-05T13:33:33.441Z,40.99
2018-02-05T13:34:14.039Z,40.03
2018-02-05T13:34:55.990Z,39.65
2018-02-05T13:35:37.919Z,39.58
2018-02-05T13:36:18.433Z,38.32
2018-02-05T13:36:59.357Z,38.03
2018-02-05T13:37:40.438Z,37.93
2018-02-05T13:38:20.990Z,37.36
2018-02-05T13:39:01.643Z,38.78
2018-02-05T13:39:42.816Z,39.23
2018-02-05T13:40:23.952Z,40.66
2018-02-05T13:41:05.510Z,41.11
2018-02-05T13:41:45.388Z,41.21
2018-02-05T13:42:26.955Z,43.11
2018-02-05T13:43:07.532Z,43.09
2018-02-05T13:43:48.316Z,44.73
2018-02-05T13:44:30.174Z,44.92
2018-02-05T13:45:10.956Z,45.01
2018-02-05T13:45:51.592Z,45.14
2018-02-05T13:46:32.479Z,44.37
2018-02-05T13:47:14.357Z,43.42
2018-02-05T13:47:54.161Z,42.96
2018-02-05T13:48:34.653Z,42.68
2018-02-05T13:49:16.245Z,41.65
2018-02-05T13:49:57.411Z,41.36
2018-02-05T13:50:38.761Z,40.8
2018-02-05T13:51:19.045Z,40.32
2018-02-05T13:51:59.757Z,40.89
2018-02-05T13:57:12.118Z,38.89
2018-02-05T13:59:16.436Z,39.92
2018-02-05T13:59:57.212Z,40.97
2018-02-05T14:00:38.290Z,40.11
2018-02-05T14:01:18.650Z,39.92
2018-02-05T14:01:59.526Z,41.53
2018-02-05T14:02:39.948Z,40.85
2018-02-05T14:03:20.784Z,41.33
2018-02-05T14:04:01.868Z,41.52
2018-02-05T14:04:42.215Z,41.23
2018-02-05T14:05:23.398Z,41.04
2018-02-05T14:06:04.770Z,40.73
2018-02-05T14:06:47.073Z,41.21
2018-02-05T14:07:28.238Z,42.61
2018-02-05T14:08:09.793Z,43.28
2018-02-05T14:10:31.977Z,43.95
2018-02-05T14:12:21.169Z,43.66
2018-02-05T14:14:19.988Z,42.97
2018-02-05T14:15:01.791Z,42.69
2018-02-05T14:15:43.451Z,43.64
2018-02-05T14:16:24.569Z,44.68
2018-02-05T14:17:05.220Z,42.79
2018-02-05T14:17:45.990Z,44.57
2018-02-05T14:18:26.837Z,45.14
2018-02-05T14:19:07.063Z,45.61
2018-02-05T14:19:48.088Z,46.59
2018-02-05T14:20:31.630Z,44.31
2018-02-05T14:21:12.530Z,42.95
2018-02-05T14:23:26.742Z,45.42
2018-02-05T14:24:09.087Z,46.37
2018-02-05T14:24:49.089Z,47.44
2018-02-05T14:25:29.760Z,47.25
2018-02-05T14:26:11.391Z,47.56
2018-02-05T14:26:52.376Z,45.95
2018-02-05T14:27:32.180Z,45.09
2018-02-05T14:28:12.973Z,44.71
2018-02-05T14:28:54.639Z,45.37
2018-02-05T14:29:34.096Z,45.18
2018-02-05T14:30:15.911Z,45.28
2018-02-05T14:30:57.044Z,44.23
2018-02-05T14:31:37.305Z,43.76
2018-02-05T14:32:18.621Z,42.71
2018-02-05T14:32:59.092Z,42.97
2018-02-05T14:38:19.781Z,46.04
2018-02-05T14:39:00.846Z,46.8
2018-02-05T14:39:41.051Z,46.23
2018-02-05T14:40:21.505Z,46.25
2018-02-05T14:42:18.903Z,42.9
2018-02-05T14:43:01.796Z,43.38
2018-02-05T14:43:42.562Z,44.49
2018-02-05T14:44:23.018Z,46.04
2018-02-05T14:45:03.549Z,46.51
2018-02-05T14:45:44.490Z,46.23
2018-02-05T14:46:25.390Z,45.68
2018-02-05T14:47:06.016Z,45.3
2018-02-05T14:47:46.810Z,44.16
2018-02-05T14:48:27.553Z,43.4
2018-02-05T14:49:08.113Z,43.13
2018-02-05T14:49:49.221Z,42.47
2018-02-05T14:50:29.813Z,40.83
2018-02-05T14:51:10.695Z,39.78
2018-02-05T14:51:51.323Z,41.38
2018-02-05T14:52:32.179Z,41.19
2018-02-05T14:53:13.572Z,41.07
2018-02-05T14:53:53.901Z,42.21
2018-02-05T14:54:36.178Z,42.21
2018-02-05T14:55:15.604Z,43.54
2018-02-05T14:55:56.005Z,44.68
2018-02-05T14:56:36.718Z,43.19
2018-02-05T14:57:17.220Z,42.52
2018-02-05T14:57:57.609Z,42.88
2018-02-05T15:00:25.441Z,41.46
2018-02-05T15:01:19.709Z,42.29
2018-02-05T15:02:13.894Z,42.76
2018-02-05T15:03:09.126Z,43.33
2018-02-05T15:04:01.279Z,42.86
2018-02-05T15:04:42.124Z,43.98
2018-02-05T15:05:24.139Z,43.69
2018-02-05T15:06:19.564Z,45.21
2018-02-05T15:08:35.467Z,45.68
2018-02-05T15:09:18.620Z,45.9
2018-02-05T15:10:01.423Z,45.04
2018-02-05T15:10:43.202Z,44.09
2018-02-05T15:11:24.087Z,44
2018-02-05T15:12:04.664Z,44.47
2018-02-05T15:12:45.438Z,44
2018-02-05T15:13:25.653Z,43.5
2018-02-05T15:14:06.190Z,44.17
2018-02-05T15:14:47.074Z,44.17
2018-02-05T15:15:27.679Z,44.73
2018-02-05T15:16:08.082Z,44.64
2018-02-05T15:16:48.486Z,45.31
2018-02-05T15:17:28.946Z,47.02
2018-02-05T15:18:10.157Z,47.89
2018-02-05T15:18:50.640Z,46.56
2018-02-05T15:19:31.062Z,46.2
2018-02-05T15:20:11.468Z,45.54
2018-02-05T15:20:51.855Z,45.64
2018-02-05T15:23:14.942Z,41.36
2018-02-05T15:23:55.781Z,41.17
2018-02-05T15:24:36.023Z,42.97
2018-02-05T15:25:16.601Z,43.16
2018-02-05T15:25:56.909Z,43.35
2018-02-05T15:26:37.585Z,43.35
2018-02-05T15:27:18.810Z,42.47
2018-02-05T15:27:59.310Z,42.86
2018-02-05T15:28:39.628Z,44.09
2018-02-05T15:29:20.618Z,44.49
2018-02-05T15:30:01.789Z,44.21
2018-02-05T15:30:42.311Z,42.97
2018-02-05T15:31:22.702Z,42.88
2018-02-05T15:32:03.130Z,43.35
2018-02-05T15:32:43.551Z,42.97
2018-02-05T15:33:24.889Z,42.4
2018-02-05T15:34:05.601Z,44.49
2018-02-05T15:34:45.923Z,44.97
2018-02-05T15:35:26.278Z,44.87
2018-02-05T15:36:06.787Z,42.99
2018-02-05T15:36:47.515Z,41.36
2018-02-05T15:37:28.056Z,41.36
2018-02-05T15:39:25.796Z,42.69
2018-02-05T15:40:07.077Z,41.55
2018-02-05T15:40:47.752Z,41.74
2018-02-05T15:41:28.480Z,41.81
2018-02-05T15:42:09.506Z,42.38
2018-02-05T15:42:50.602Z,43.43
2018-02-05T15:43:30.524Z,44
2018-02-05T15:44:11.032Z,44.95
2018-02-05T15:44:51.448Z,46.56
2018-02-05T15:45:31.833Z,46.94
2018-02-05T15:46:13.208Z,44
2018-02-05T15:46:53.721Z,43.43
2018-02-05T15:47:34.242Z,43.33
2018-02-05T15:48:14.976Z,44.85
2018-02-05T15:48:55.391Z,46.19
2018-02-05T15:49:35.779Z,46.56
2018-02-05T15:50:16.163Z,46.28
2018-02-05T15:50:56.571Z,46.97
2018-02-05T15:51:36.926Z,46.2
2018-02-05T15:52:17.361Z,45.26
2018-02-05T15:52:57.874Z,44.87
2018-02-05T15:53:38.456Z,43.07
2018-02-05T15:55:56.354Z,44.59
2018-02-05T15:56:39.921Z,43.64
2018-02-05T15:57:20.492Z,43.07
2018-02-05T15:58:00.931Z,43.43
2018-02-05T15:58:41.341Z,43.8
2018-02-05T15:59:21.778Z,45.33
2018-02-05T16:00:02.211Z,45.14
2018-02-05T16:00:42.576Z,46.28
2018-02-05T16:01:22.946Z,45.23
2018-02-05T16:03:50.265Z,47.71
2018-02-05T16:04:46.493Z,46.19
2018-02-05T16:43:24.723Z,54.75
2018-02-05T16:44:21.051Z,55.41